createdAt,value
2023-04-12T00:04:16.238Z,2.60
2023-04-12T00:09:18.264Z,2.60
2023-04-12T00:14:21.038Z,2.50
2023-04-12T00:19:25.801Z,2.40
2023-04-12T00:24:27.566Z,2.40
2023-04-12T00:29:29.346Z,2.40
2023-04-12T00:34:31.288Z,2.50
2023-04-12T00:39:33.070Z,2.50
2023-04-12T00:44:38.083Z,2.50
2023-04-12T00:49:39.958Z,2.40
2023-04-12T00:54:43.084Z,2.40
2023-04-12T00:59:46.905Z,2.30
2023-04-12T01:04:51.175Z,2.40
2023-04-12T01:10:20.434Z,2.20
2023-04-12T01:15:24.386Z,2.20
2023-04-12T01:20:44.784Z,2.20
2023-04-12T01:26:12.353Z,2.20
2023-04-12T01:31:14.919Z,2.20
2023-04-12T01:36:21.358Z,2.20
2023-04-12T01:41:23.578Z,2.20
2023-04-12T01:46:25.804Z,2.30
2023-04-12T01:52:01.666Z,2.40
2023-04-12T01:57:05.870Z,2.30
2023-04-12T02:02:12.398Z,2.30
2023-04-12T02:07:18.441Z,2.30
2023-04-12T02:12:20.231Z,2.30
2023-04-12T02:17:22.033Z,2.40
2023-04-12T02:22:24.520Z,2.30
2023-04-12T02:27:26.260Z,2.30
2023-04-12T02:32:28.128Z,2.30
2023-04-12T02:37:30.478Z,2.20
2023-04-12T02:42:32.926Z,2.20
2023-04-12T02:47:34.976Z,2.30
2023-04-12T02:52:38.458Z,2.20
2023-04-12T02:57:48.509Z,2.30
2023-04-12T03:02:51.822Z,2.20
2023-04-12T03:08:00.650Z,2.30
2023-04-12T03:13:12.129Z,2.30
2023-04-12T03:18:23.467Z,2.30
2023-04-12T03:23:27.821Z,2.30
2023-04-12T03:28:48.189Z,2.30
2023-04-12T03:33:51.017Z,2.30
2023-04-12T03:38:57.111Z,2.40
2023-04-12T03:43:59.448Z,2.40
2023-04-12T03:49:01.991Z,2.40
2023-04-12T03:54:04.991Z,2.40
2023-04-12T03:59:18.597Z,2.50
2023-04-12T04:04:24.606Z,2.60
2023-04-12T04:09:30.764Z,2.60
2023-04-12T04:14:34.803Z,2.70
2023-04-12T04:19:39.032Z,2.70
2023-04-12T04:24:41.137Z,2.70
2023-04-12T04:29:45.560Z,2.70
2023-04-12T04:34:50.064Z,2.80
2023-04-12T04:39:53.010Z,2.80
2023-04-12T04:45:03.494Z,2.90
2023-04-12T04:50:11.166Z,3.00
2023-04-12T04:55:13.850Z,3.00
2023-04-12T05:00:21.536Z,3.10
2023-04-12T05:05:29.359Z,3.20
2023-04-12T05:10:40.323Z,3.30
2023-04-12T05:15:42.115Z,3.30
2023-04-12T05:20:44.359Z,3.40
2023-04-12T05:25:49.919Z,3.50
2023-04-12T05:30:53.357Z,3.60
2023-04-12T05:36:00.536Z,3.70
2023-04-12T05:41:04.769Z,3.80
2023-04-12T05:46:08.369Z,3.90
2023-04-12T05:51:11.750Z,4.00
2023-04-12T05:56:14.084Z,4.10
2023-04-12T06:01:19.259Z,4.30
2023-04-12T06:06:20.997Z,4.40
2023-04-12T06:11:22.835Z,4.60
2023-04-12T06:16:24.937Z,4.80
2023-04-12T06:21:27.041Z,5.00
2023-04-12T06:26:38.985Z,5.20
2023-04-12T06:31:42.315Z,5.40
2023-04-12T06:36:46.342Z,5.60
2023-04-12T06:41:48.304Z,5.70
2023-04-12T06:46:54.447Z,5.90
2023-04-12T06:51:56.259Z,6.00
2023-04-12T06:56:58.495Z,6.10
2023-04-12T07:02:00.531Z,6.20
2023-04-12T07:07:02.365Z,6.30
2023-04-12T07:12:04.232Z,6.40
2023-04-12T07:17:06.727Z,6.50
2023-04-12T07:22:08.898Z,6.60
2023-04-12T07:27:11.138Z,6.70
2023-04-12T07:32:13.103Z,6.70
2023-04-12T07:37:14.858Z,6.80
2023-04-12T07:42:16.894Z,6.80
2023-04-12T07:47:18.656Z,6.90
2023-04-12T07:52:20.548Z,7.10
2023-04-12T07:57:23.472Z,7.20
2023-04-12T08:02:26.021Z,7.40
2023-04-12T08:07:28.144Z,7.50
2023-04-12T08:12:30.030Z,7.60
2023-04-12T08:17:31.948Z,7.60
2023-04-12T08:22:33.730Z,7.70
2023-04-12T08:27:35.503Z,7.70
2023-04-12T08:32:37.837Z,7.80
2023-04-12T08:37:39.674Z,7.80
2023-04-12T08:42:41.671Z,7.80
2023-04-12T08:47:44.603Z,7.90
2023-04-12T08:52:49.132Z,7.80
2023-04-12T08:57:53.864Z,7.80
2023-04-12T09:02:55.882Z,8.00
2023-04-12T09:07:58.236Z,7.90
2023-04-12T09:13:01.210Z,7.90
2023-04-12T09:18:06.844Z,7.90
2023-04-12T09:23:22.062Z,7.90
2023-04-12T09:28:26.141Z,8.10
2023-04-12T09:33:39.034Z,8.20
2023-04-12T09:38:43.114Z,8.20
2023-04-12T09:43:45.061Z,8.30
2023-04-12T09:48:52.139Z,8.40
2023-04-12T09:53:59.572Z,8.60
2023-04-12T09:59:06.131Z,8.70
2023-04-12T10:04:09.287Z,8.80
2023-04-12T10:09:13.343Z,8.70
2023-04-12T10:14:17.954Z,8.80
2023-04-12T10:19:20.732Z,8.80
2023-04-12T10:24:23.999Z,8.90
2023-04-12T10:29:37.117Z,8.90
2023-04-12T10:34:42.805Z,8.90
2023-04-12T10:39:51.441Z,8.90
2023-04-12T10:45:24.502Z,8.80
2023-04-12T10:50:33.986Z,8.90
2023-04-12T10:55:38.680Z,8.80
2023-04-12T11:00:56.519Z,8.70
2023-04-12T11:06:20.192Z,8.80
2023-04-12T11:11:46.755Z,8.90
2023-04-12T11:17:06.956Z,9.00
2023-04-12T11:22:13.201Z,9.10
2023-04-12T11:27:18.188Z,9.30
2023-04-12T11:32:21.720Z,9.30
2023-04-12T11:37:24.627Z,9.20
2023-04-12T11:42:28.975Z,9.10
2023-04-12T11:47:30.841Z,9.00
2023-04-12T11:52:33.388Z,9.00
2023-04-12T11:57:35.475Z,9.00
2023-04-12T12:02:43.575Z,9.00
2023-04-12T12:07:52.572Z,9.00
2023-04-12T12:12:58.053Z,9.10
2023-04-12T12:18:02.108Z,9.20
2023-04-12T12:23:04.147Z,9.40
2023-04-12T12:28:12.270Z,9.60
2023-04-12T12:33:20.869Z,9.60
2023-04-12T12:38:31.408Z,9.60
2023-04-12T12:43:34.020Z,9.50
2023-04-12T12:48:40.336Z,9.50
2023-04-12T12:53:42.188Z,9.60
2023-04-12T12:58:44.160Z,9.60
2023-04-12T13:03:46.119Z,9.70
2023-04-12T13:08:47.943Z,9.70
2023-04-12T13:13:49.717Z,9.80
2023-04-12T13:18:51.445Z,9.80
2023-04-12T13:23:53.238Z,9.80
2023-04-12T13:28:55.034Z,9.80
2023-04-12T13:33:56.788Z,9.70
2023-04-12T13:38:58.800Z,9.90
2023-04-12T13:44:01.866Z,9.90
2023-04-12T13:49:03.797Z,10.10
2023-04-12T13:54:05.747Z,10.10
2023-04-12T13:59:08.068Z,10.30
2023-04-12T14:04:09.987Z,10.50
2023-04-12T14:09:33.030Z,10.50
2023-04-12T14:14:34.895Z,10.40
2023-04-12T14:19:36.697Z,10.20
2023-04-12T14:24:40.095Z,10.20
2023-04-12T14:29:42.079Z,10.20
2023-04-12T14:34:44.197Z,10.30
2023-04-12T14:39:46.006Z,10.70
2023-04-12T14:44:48.024Z,10.80
2023-04-12T14:49:49.851Z,10.80
2023-04-12T14:54:51.676Z,10.90
2023-04-12T14:59:53.501Z,10.90
2023-04-12T15:04:55.489Z,10.90
2023-04-12T15:09:58.537Z,10.90
2023-04-12T15:15:03.504Z,10.70
2023-04-12T15:20:11.582Z,10.70
2023-04-12T15:25:13.494Z,10.50
2023-04-12T15:30:15.545Z,10.40
2023-04-12T15:35:25.989Z,10.40
2023-04-12T15:40:28.795Z,10.30
2023-04-12T15:45:30.783Z,10.20
2023-04-12T15:50:32.687Z,10.00
2023-04-12T15:55:34.607Z,9.90
2023-04-12T16:00:38.280Z,9.90
2023-04-12T16:05:40.991Z,9.90
2023-04-12T16:10:44.097Z,9.90
2023-04-12T16:15:46.871Z,9.90
2023-04-12T16:20:48.647Z,9.80
2023-04-12T16:25:50.417Z,9.80
2023-04-12T16:30:52.788Z,9.80
2023-04-12T16:35:54.544Z,9.80
2023-04-12T16:40:56.483Z,9.70
2023-04-12T16:46:04.853Z,9.60
2023-04-12T16:51:06.842Z,9.70
2023-04-12T16:56:09.309Z,9.70
2023-04-12T17:06:21.742Z,9.70
2023-04-12T17:11:23.529Z,9.70
2023-04-12T17:16:25.598Z,9.70
2023-04-12T17:21:27.470Z,9.60
2023-04-12T17:26:29.346Z,9.60
2023-04-12T17:31:35.447Z,9.60
2023-04-12T17:36:38.211Z,9.40
2023-04-12T17:41:40.294Z,9.40
2023-04-12T17:46:43.487Z,9.30
2023-04-12T17:51:45.261Z,9.10
2023-04-12T17:56:50.494Z,8.90
2023-04-12T18:01:52.322Z,8.80
2023-04-12T18:06:54.370Z,8.60
2023-04-12T18:11:57.394Z,8.40
2023-04-12T18:16:59.135Z,8.20
2023-04-12T18:22:01.037Z,8.20
2023-04-12T18:27:04.228Z,8.20
2023-04-12T18:32:06.163Z,8.20
2023-04-12T18:37:07.918Z,8.20
2023-04-12T18:42:09.815Z,8.20
2023-04-12T18:47:12.707Z,8.30
2023-04-12T18:52:14.450Z,8.30
2023-04-12T18:57:16.303Z,8.30
2023-04-12T19:02:18.398Z,8.40
2023-04-12T19:07:20.198Z,8.40
2023-04-12T19:12:22.443Z,8.50
2023-04-12T19:17:27.555Z,8.40
2023-04-12T19:22:29.455Z,8.50
2023-04-12T19:27:31.240Z,8.50
2023-04-12T19:32:33.031Z,8.50
2023-04-12T19:37:34.899Z,8.50
2023-04-12T19:42:37.006Z,8.50
2023-04-12T19:47:44.902Z,8.60
2023-04-12T19:52:48.636Z,8.60
2023-04-12T19:57:51.303Z,8.60
2023-04-12T20:02:54.209Z,8.80
2023-04-12T20:07:56.262Z,9.00
2023-04-12T20:12:58.068Z,9.00
2023-04-12T20:17:59.908Z,8.90
2023-04-12T20:23:01.696Z,8.90
2023-04-12T20:28:04.448Z,8.90
2023-04-12T20:33:06.976Z,8.80
2023-04-12T20:38:09.035Z,8.80
2023-04-12T20:43:10.799Z,8.70
2023-04-12T20:48:12.684Z,8.80
2023-04-12T20:53:17.369Z,8.80
2023-04-12T20:58:19.428Z,8.80
2023-04-12T21:03:21.351Z,8.70
2023-04-12T21:08:23.545Z,8.70
2023-04-12T21:13:26.531Z,8.70
2023-04-12T21:18:28.337Z,8.60
2023-04-12T21:23:30.168Z,8.60
2023-04-12T21:28:31.946Z,8.60
2023-04-12T21:33:34.908Z,8.50
2023-04-12T21:38:36.832Z,8.50
2023-04-12T21:43:41.830Z,8.50
2023-04-12T21:48:43.992Z,8.50
2023-04-12T21:53:45.954Z,8.50
2023-04-12T21:58:47.744Z,8.50
2023-04-12T22:03:49.646Z,8.40
2023-04-12T22:08:52.055Z,8.40
2023-04-12T22:13:54.076Z,8.30
2023-04-12T22:18:55.853Z,8.40
2023-04-12T22:23:58.234Z,8.40
2023-04-12T22:29:00.142Z,8.40
2023-04-12T22:34:02.202Z,8.40
2023-04-12T22:39:04.777Z,8.40
2023-04-12T22:44:07.794Z,8.30
2023-04-12T22:49:09.574Z,8.30
2023-04-12T22:54:12.004Z,8.30
2023-04-12T22:59:22.342Z,8.30
2023-04-12T23:04:24.271Z,8.40
2023-04-12T23:09:27.241Z,8.40
2023-04-12T23:14:29.890Z,8.40
2023-04-12T23:19:33.128Z,8.40
2023-04-12T23:24:36.405Z,8.40
2023-04-12T23:29:38.646Z,8.30
2023-04-12T23:34:40.379Z,8.30
2023-04-12T23:39:43.072Z,8.30
2023-04-12T23:44:46.515Z,8.30
2023-04-12T23:49:48.322Z,8.20
2023-04-12T23:54:50.089Z,8.20
2023-04-12T23:59:52.179Z,8.10
